sensor_id;sensor_type;location;lat;lon;timestamp;pressure;altitude;pressure_sealevel;temperature;humidity
46303;BME280;32029;51.358;5.628;2023-04-25T00:00:40;100858.06;;;9.39;85.14
46303;BME280;32029;51.358;5.628;2023-04-25T00:03:07;100861.00;;;9.38;85.52
46303;BME280;32029;51.358;5.628;2023-04-25T00:05:35;100848.38;;;9.28;85.62
46303;BME280;32029;51.358;5.628;2023-04-25T00:08:03;100857.91;;;9.41;85.59
46303;BME280;32029;51.358;5.628;2023-04-25T00:10:31;100852.25;;;9.42;85.57
46303;BME280;32029;51.358;5.628;2023-04-25T00:12:57;100855.16;;;9.41;85.40
46303;BME280;32029;51.358;5.628;2023-04-25T00:15:24;100844.91;;;9.35;85.79
46303;BME280;32029;51.358;5.628;2023-04-25T00:17:51;100842.38;;;9.33;85.36
46303;BME280;32029;51.358;5.628;2023-04-25T00:20:19;100853.81;;;9.37;85.73
46303;BME280;32029;51.358;5.628;2023-04-25T00:22:45;100863.75;;;9.38;85.74
46303;BME280;32029;51.358;5.628;2023-04-25T00:25:12;100866.13;;;9.41;85.87
46303;BME280;32029;51.358;5.628;2023-04-25T00:27:39;100871.22;;;9.44;85.88
46303;BME280;32029;51.358;5.628;2023-04-25T00:30:06;100847.66;;;9.35;86.01
46303;BME280;32029;51.358;5.628;2023-04-25T00:32:33;100869.97;;;9.54;85.62
46303;BME280;32029;51.358;5.628;2023-04-25T00:34:59;100869.63;;;9.57;85.47
46303;BME280;32029;51.358;5.628;2023-04-25T00:37:26;100867.06;;;9.56;85.02
46303;BME280;32029;51.358;5.628;2023-04-25T00:39:53;100839.44;;;9.35;85.48
46303;BME280;32029;51.358;5.628;2023-04-25T00:42:21;100854.13;;;9.42;85.63
46303;BME280;32029;51.358;5.628;2023-04-25T00:44:48;100857.22;;;9.39;85.35
46303;BME280;32029;51.358;5.628;2023-04-25T00:47:15;100870.88;;;9.47;85.59
46303;BME280;32029;51.358;5.628;2023-04-25T00:49:42;100865.75;;;9.44;85.65
46303;BME280;32029;51.358;5.628;2023-04-25T00:52:09;100862.69;;;9.39;85.86
46303;BME280;32029;51.358;5.628;2023-04-25T00:54:36;100847.19;;;9.23;86.42
46303;BME280;32029;51.358;5.628;2023-04-25T00:57:03;100858.66;;;9.26;86.13
46303;BME280;32029;51.358;5.628;2023-04-25T00:59:30;100865.50;;;9.22;86.37
46303;BME280;32029;51.358;5.628;2023-04-25T01:01:58;100849.31;;;9.04;86.22
46303;BME280;32029;51.358;5.628;2023-04-25T01:04:27;100862.97;;;9.13;86.38
46303;BME280;32029;51.358;5.628;2023-04-25T01:06:54;100858.88;;;9.08;86.21
46303;BME280;32029;51.358;5.628;2023-04-25T01:09:22;100851.59;;;8.93;86.44
46303;BME280;32029;51.358;5.628;2023-04-25T01:11:49;100865.59;;;8.98;86.76
46303;BME280;32029;51.358;5.628;2023-04-25T01:14:16;100867.16;;;8.92;87.31
46303;BME280;32029;51.358;5.628;2023-04-25T01:16:43;100864.59;;;8.91;87.17
46303;BME280;32029;51.358;5.628;2023-04-25T01:19:11;100864.94;;;8.88;87.58
46303;BME280;32029;51.358;5.628;2023-04-25T01:21:38;100861.53;;;8.86;87.06
46303;BME280;32029;51.358;5.628;2023-04-25T01:24:06;100843.94;;;8.72;87.29
46303;BME280;32029;51.358;5.628;2023-04-25T01:26:33;100863.78;;;8.82;87.17
46303;BME280;32029;51.358;5.628;2023-04-25T01:29:00;100851.13;;;8.73;87.17
46303;BME280;32029;51.358;5.628;2023-04-25T01:31:28;100865.31;;;8.76;87.21
46303;BME280;32029;51.358;5.628;2023-04-25T01:33:55;100849.78;;;8.61;87.08
46303;BME280;32029;51.358;5.628;2023-04-25T01:36:22;100859.53;;;8.63;87.39
46303;BME280;32029;51.358;5.628;2023-04-25T01:38:49;100873.88;;;8.65;87.14
46303;BME280;32029;51.358;5.628;2023-04-25T01:41:16;100842.66;;;8.43;87.27
46303;BME280;32029;51.358;5.628;2023-04-25T01:43:44;100845.38;;;8.43;87.26
46303;BME280;32029;51.358;5.628;2023-04-25T01:46:13;100853.59;;;8.43;87.32
46303;BME280;32029;51.358;5.628;2023-04-25T01:48:39;100876.66;;;8.49;87.56
46303;BME280;32029;51.358;5.628;2023-04-25T01:51:06;100858.84;;;8.37;87.24
46303;BME280;32029;51.358;5.628;2023-04-25T01:53:33;100867.25;;;8.43;87.01
46303;BME280;32029;51.358;5.628;2023-04-25T01:56:00;100857.16;;;8.27;87.33
46303;BME280;32029;51.358;5.628;2023-04-25T01:58:27;100858.34;;;8.25;87.54
46303;BME280;32029;51.358;5.628;2023-04-25T02:00:53;100882.94;;;8.33;87.89
46303;BME280;32029;51.358;5.628;2023-04-25T02:03:20;100862.28;;;8.14;87.82
46303;BME280;32029;51.358;5.628;2023-04-25T02:05:47;100892.34;;;8.30;88.14
46303;BME280;32029;51.358;5.628;2023-04-25T02:08:13;100863.63;;;8.18;88.21
46303;BME280;32029;51.358;5.628;2023-04-25T02:10:40;100895.75;;;8.32;88.21
46303;BME280;32029;51.358;5.628;2023-04-25T02:13:07;100861.59;;;8.20;87.97
46303;BME280;32029;51.358;5.628;2023-04-25T02:15:33;100887.56;;;8.32;88.24
46303;BME280;32029;51.358;5.628;2023-04-25T02:18:01;100890.66;;;8.38;88.32
46303;BME280;32029;51.358;5.628;2023-04-25T02:20:29;100869.78;;;8.28;87.94
46303;BME280;32029;51.358;5.628;2023-04-25T02:22:56;100892.41;;;8.39;87.68
46303;BME280;32029;51.358;5.628;2023-04-25T02:25:23;100884.34;;;8.37;87.95
46303;BME280;32029;51.358;5.628;2023-04-25T02:27:49;100876.97;;;8.29;87.61
46303;BME280;32029;51.358;5.628;2023-04-25T02:30:17;100901.25;;;8.41;87.41
46303;BME280;32029;51.358;5.628;2023-04-25T02:32:44;100891.34;;;8.31;87.48
46303;BME280;32029;51.358;5.628;2023-04-25T02:35:11;100899.56;;;8.40;87.64
46303;BME280;32029;51.358;5.628;2023-04-25T02:37:38;100898.16;;;8.35;87.69
46303;BME280;32029;51.358;5.628;2023-04-25T02:40:06;100884.50;;;8.27;87.43
46303;BME280;32029;51.358;5.628;2023-04-25T02:42:33;100905.53;;;8.43;87.71
46303;BME280;32029;51.358;5.628;2023-04-25T02:45:00;100893.41;;;8.38;87.82
46303;BME280;32029;51.358;5.628;2023-04-25T02:47:27;100885.50;;;8.34;88.10
46303;BME280;32029;51.358;5.628;2023-04-25T02:49:53;100908.28;;;8.51;88.25
46303;BME280;32029;51.358;5.628;2023-04-25T02:52:20;100901.59;;;8.54;88.04
46303;BME280;32029;51.358;5.628;2023-04-25T02:54:47;100896.63;;;8.49;88.38
46303;BME280;32029;51.358;5.628;2023-04-25T02:57:14;100881.47;;;8.39;88.31
46303;BME280;32029;51.358;5.628;2023-04-25T02:59:41;100893.25;;;8.47;88.64
46303;BME280;32029;51.358;5.628;2023-04-25T03:02:07;100899.72;;;8.46;89.15
46303;BME280;32029;51.358;5.628;2023-04-25T03:04:34;100852.03;;;8.16;88.78
46303;BME280;32029;51.358;5.628;2023-04-25T03:07:01;100898.88;;;8.38;88.95
46303;BME280;32029;51.358;5.628;2023-04-25T03:09:29;100883.47;;;8.28;89.06
46303;BME280;32029;51.358;5.628;2023-04-25T03:11:56;100886.53;;;8.25;89.30
46303;BME280;32029;51.358;5.628;2023-04-25T03:14:23;100897.66;;;8.32;89.35
46303;BME280;32029;51.358;5.628;2023-04-25T03:16:53;100897.81;;;8.30;89.50
46303;BME280;32029;51.358;5.628;2023-04-25T03:19:19;100899.69;;;8.30;89.77
46303;BME280;32029;51.358;5.628;2023-04-25T03:21:47;100907.03;;;8.29;89.79
46303;BME280;32029;51.358;5.628;2023-04-25T03:24:13;100902.59;;;8.28;90.01
46303;BME280;32029;51.358;5.628;2023-04-25T03:26:40;100885.00;;;8.15;89.88
46303;BME280;32029;51.358;5.628;2023-04-25T03:29:07;100875.59;;;8.09;90.48
46303;BME280;32029;51.358;5.628;2023-04-25T03:31:33;100910.28;;;8.33;90.58
46303;BME280;32029;51.358;5.628;2023-04-25T03:34:00;100916.28;;;8.37;90.24
46303;BME280;32029;51.358;5.628;2023-04-25T03:36:27;100896.81;;;8.23;90.17
46303;BME280;32029;51.358;5.628;2023-04-25T03:38:53;100903.13;;;8.32;90.25
46303;BME280;32029;51.358;5.628;2023-04-25T03:41:20;100913.06;;;8.41;90.51
46303;BME280;32029;51.358;5.628;2023-04-25T03:43:47;100903.47;;;8.37;89.98
46303;BME280;32029;51.358;5.628;2023-04-25T03:46:14;100896.81;;;8.31;90.11
46303;BME280;32029;51.358;5.628;2023-04-25T03:48:40;100891.66;;;8.37;89.79
46303;BME280;32029;51.358;5.628;2023-04-25T03:51:07;100919.22;;;8.51;89.59
46303;BME280;32029;51.358;5.628;2023-04-25T03:53:33;100920.06;;;8.52;89.46
46303;BME280;32029;51.358;5.628;2023-04-25T03:56:00;100920.06;;;8.52;89.27
46303;BME280;32029;51.358;5.628;2023-04-25T03:58:27;100916.28;;;8.53;89.62
46303;BME280;32029;51.358;5.628;2023-04-25T04:00:54;100916.13;;;8.54;89.19
46303;BME280;32029;51.358;5.628;2023-04-25T04:03:20;100913.41;;;8.54;89.28
46303;BME280;32029;51.358;5.628;2023-04-25T04:05:47;100862.25;;;8.22;88.73
46303;BME280;32029;51.358;5.628;2023-04-25T04:08:14;100896.97;;;8.38;88.80
46303;BME280;32029;51.358;5.628;2023-04-25T04:10:40;100918.88;;;8.54;88.49
46303;BME280;32029;51.358;5.628;2023-04-25T04:13:07;100923.84;;;8.51;88.46
46303;BME280;32029;51.358;5.628;2023-04-25T04:15:34;100921.44;;;8.48;88.83
46303;BME280;32029;51.358;5.628;2023-04-25T04:18:00;100904.81;;;8.33;89.06
46303;BME280;32029;51.358;5.628;2023-04-25T04:20:29;100926.38;;;8.52;89.37
46303;BME280;32029;51.358;5.628;2023-04-25T04:22:57;100934.59;;;8.52;89.30
46303;BME280;32029;51.358;5.628;2023-04-25T04:25:23;100935.78;;;8.50;89.06
46303;BME280;32029;51.358;5.628;2023-04-25T04:27:50;100946.72;;;8.58;89.47
46303;BME280;32029;51.358;5.628;2023-04-25T04:30:22;100933.41;;;8.63;89.35
46303;BME280;32029;51.358;5.628;2023-04-25T04:32:51;100937.50;;;8.67;89.50
46303;BME280;32029;51.358;5.628;2023-04-25T04:35:18;100925.19;;;8.63;89.55
46303;BME280;32029;51.358;5.628;2023-04-25T04:37:44;100886.94;;;8.39;88.99
46303;BME280;32029;51.358;5.628;2023-04-25T04:40:12;100945.16;;;8.80;88.83
46303;BME280;32029;51.358;5.628;2023-04-25T04:42:42;100925.50;;;8.68;88.73
46303;BME280;32029;51.358;5.628;2023-04-25T04:45:09;100947.72;;;8.81;88.67
46303;BME280;32029;51.358;5.628;2023-04-25T04:47:36;100949.44;;;8.82;88.70
46303;BME280;32029;51.358;5.628;2023-04-25T04:50:03;100952.84;;;8.84;88.61
46303;BME280;32029;51.358;5.628;2023-04-25T04:52:30;100959.03;;;8.87;88.57
46303;BME280;32029;51.358;5.628;2023-04-25T04:54:57;100971.66;;;8.88;88.24
46303;BME280;32029;51.358;5.628;2023-04-25T04:57:23;100968.75;;;8.89;88.73
46303;BME280;32029;51.358;5.628;2023-04-25T04:59:51;100946.72;;;8.82;88.58
46303;BME280;32029;51.358;5.628;2023-04-25T05:02:17;100977.13;;;8.96;88.26
46303;BME280;32029;51.358;5.628;2023-04-25T05:04:44;100931.69;;;8.78;88.69
46303;BME280;32029;51.358;5.628;2023-04-25T05:07:11;100938.50;;;8.82;88.14
46303;BME280;32029;51.358;5.628;2023-04-25T05:09:38;100984.31;;;9.05;88.40
46303;BME280;32029;51.358;5.628;2023-04-25T05:12:05;100984.13;;;9.06;87.96
46303;BME280;32029;51.358;5.628;2023-04-25T05:14:32;100990.97;;;9.11;87.98
46303;BME280;32029;51.358;5.628;2023-04-25T05:16:58;100987.38;;;9.18;87.88
46303;BME280;32029;51.358;5.628;2023-04-25T05:19:25;100990.09;;;9.26;88.17
46303;BME280;32029;51.358;5.628;2023-04-25T05:21:52;101002.06;;;9.33;87.39
46303;BME280;32029;51.358;5.628;2023-04-25T05:24:19;101003.06;;;9.41;87.48
46303;BME280;32029;51.358;5.628;2023-04-25T05:26:46;101003.38;;;9.46;86.96
46303;BME280;32029;51.358;5.628;2023-04-25T05:29:12;101004.94;;;9.48;86.88
46303;BME280;32029;51.358;5.628;2023-04-25T05:31:39;101008.16;;;9.52;86.46
46303;BME280;32029;51.358;5.628;2023-04-25T05:34:06;101010.53;;;9.55;86.19
46303;BME280;32029;51.358;5.628;2023-04-25T05:36:33;101012.25;;;9.56;86.06
46303;BME280;32029;51.358;5.628;2023-04-25T05:38:59;101011.88;;;9.59;85.82
46303;BME280;32029;51.358;5.628;2023-04-25T05:41:26;101013.44;;;9.62;86.02
46303;BME280;32029;51.358;5.628;2023-04-25T05:43:53;101015.63;;;9.66;85.56
46303;BME280;32029;51.358;5.628;2023-04-25T05:46:19;101016.13;;;9.70;85.40
46303;BME280;32029;51.358;5.628;2023-04-25T05:48:46;101001.44;;;9.63;85.11
46303;BME280;32029;51.358;5.628;2023-04-25T05:51:13;101022.44;;;9.78;84.80
46303;BME280;32029;51.358;5.628;2023-04-25T05:53:39;101025.03;;;9.80;84.24
46303;BME280;32029;51.358;5.628;2023-04-25T05:56:06;101034.41;;;9.86;83.91
46303;BME280;32029;51.358;5.628;2023-04-25T05:58:33;101032.34;;;9.88;83.95
46303;BME280;32029;51.358;5.628;2023-04-25T06:00:59;101037.09;;;9.94;83.95
46303;BME280;32029;51.358;5.628;2023-04-25T06:03:26;101027.19;;;9.93;83.54
46303;BME280;32029;51.358;5.628;2023-04-25T06:05:53;101030.56;;;10.03;83.84
46303;BME280;32029;51.358;5.628;2023-04-25T06:08:19;101040.09;;;10.15;83.39
46303;BME280;32029;51.358;5.628;2023-04-25T06:10:46;101041.44;;;10.27;83.79
46303;BME280;32029;51.358;5.628;2023-04-25T06:13:13;101041.88;;;10.39;82.26
46303;BME280;32029;51.358;5.628;2023-04-25T06:15:39;101047.13;;;10.49;80.60
46303;BME280;32029;51.358;5.628;2023-04-25T06:18:06;101046.06;;;10.58;80.08
46303;BME280;32029;51.358;5.628;2023-04-25T06:20:33;101040.50;;;10.66;79.98
46303;BME280;32029;51.358;5.628;2023-04-25T06:22:59;101040.44;;;10.74;78.58
46303;BME280;32029;51.358;5.628;2023-04-25T06:25:26;101050.22;;;10.77;77.75
46303;BME280;32029;51.358;5.628;2023-04-25T06:27:53;101029.53;;;10.66;77.46
46303;BME280;32029;51.358;5.628;2023-04-25T06:30:20;101044.16;;;10.82;78.02
46303;BME280;32029;51.358;5.628;2023-04-25T06:32:50;101043.97;;;10.83;77.48
46303;BME280;32029;51.358;5.628;2023-04-25T06:35:16;101048.91;;;10.88;76.71
46303;BME280;32029;51.358;5.628;2023-04-25T06:37:43;101053.38;;;10.89;76.12
46303;BME280;32029;51.358;5.628;2023-04-25T06:40:10;101051.28;;;10.91;75.95
46303;BME280;32029;51.358;5.628;2023-04-25T06:42:37;101058.13;;;10.95;76.00
46303;BME280;32029;51.358;5.628;2023-04-25T06:45:04;101043.31;;;10.81;74.75
46303;BME280;32029;51.358;5.628;2023-04-25T06:47:30;101067.69;;;10.99;74.35
46303;BME280;32029;51.358;5.628;2023-04-25T06:49:57;101075.56;;;11.02;73.72
46303;BME280;32029;51.358;5.628;2023-04-25T06:52:24;101079.34;;;11.01;73.19
46303;BME280;32029;51.358;5.628;2023-04-25T06:54:50;101085.34;;;11.04;72.35
46303;BME280;32029;51.358;5.628;2023-04-25T06:57:17;101087.88;;;11.06;71.91
46303;BME280;32029;51.358;5.628;2023-04-25T06:59:44;101072.94;;;11.09;71.88
46303;BME280;32029;51.358;5.628;2023-04-25T07:02:10;101080.81;;;11.12;72.57
46303;BME280;32029;51.358;5.628;2023-04-25T07:04:37;101085.56;;;11.18;72.15
46303;BME280;32029;51.358;5.628;2023-04-25T07:07:04;101087.75;;;11.22;71.91
46303;BME280;32029;51.358;5.628;2023-04-25T07:09:31;101004.06;;;10.72;71.69
46303;BME280;32029;51.358;5.628;2023-04-25T07:12:00;101082.25;;;11.22;69.68
46303;BME280;32029;51.358;5.628;2023-04-25T07:14:30;101095.00;;;11.15;69.63
46303;BME280;32029;51.358;5.628;2023-04-25T07:16:56;101024.31;;;10.71;69.26
46303;BME280;32029;51.358;5.628;2023-04-25T07:19:23;101052.03;;;10.85;68.53
46303;BME280;32029;51.358;5.628;2023-04-25T07:21:53;101104.50;;;11.13;68.69
46303;BME280;32029;51.358;5.628;2023-04-25T07:24:19;101091.97;;;11.10;68.27
46303;BME280;32029;51.358;5.628;2023-04-25T07:26:46;101078.03;;;10.97;68.10
46303;BME280;32029;51.358;5.628;2023-04-25T07:29:13;101098.50;;;11.09;66.60
46303;BME280;32029;51.358;5.628;2023-04-25T07:31:40;101103.72;;;11.04;66.80
46303;BME280;32029;51.358;5.628;2023-04-25T07:34:07;101104.72;;;11.03;67.05
46303;BME280;32029;51.358;5.628;2023-04-25T07:36:33;101109.00;;;11.06;66.80
46303;BME280;32029;51.358;5.628;2023-04-25T07:39:00;101109.84;;;11.06;67.28
46303;BME280;32029;51.358;5.628;2023-04-25T07:41:27;101101.91;;;11.11;67.51
46303;BME280;32029;51.358;5.628;2023-04-25T07:43:54;101106.69;;;11.17;67.58
46303;BME280;32029;51.358;5.628;2023-04-25T07:46:20;101113.50;;;11.21;68.04
46303;BME280;32029;51.358;5.628;2023-04-25T07:48:47;101099.97;;;11.20;68.16
46303;BME280;32029;51.358;5.628;2023-04-25T07:51:14;101101.13;;;11.25;67.39
46303;BME280;32029;51.358;5.628;2023-04-25T07:53:41;101105.47;;;11.35;65.99
46303;BME280;32029;51.358;5.628;2023-04-25T07:56:08;101108.44;;;11.33;65.41
46303;BME280;32029;51.358;5.628;2023-04-25T07:58:35;101096.97;;;11.29;65.24
46303;BME280;32029;51.358;5.628;2023-04-25T08:01:02;101120.69;;;11.45;64.74
46303;BME280;32029;51.358;5.628;2023-04-25T08:03:29;101107.31;;;11.42;65.46
46303;BME280;32029;51.358;5.628;2023-04-25T08:05:56;101132.06;;;11.57;64.67
46303;BME280;32029;51.358;5.628;2023-04-25T08:08:22;101129.69;;;11.54;63.99
46303;BME280;32029;51.358;5.628;2023-04-25T08:10:49;101132.00;;;11.65;63.96
46303;BME280;32029;51.358;5.628;2023-04-25T08:13:16;101135.41;;;11.67;63.62
46303;BME280;32029;51.358;5.628;2023-04-25T08:15:43;101139.41;;;11.80;63.56
46303;BME280;32029;51.358;5.628;2023-04-25T08:18:09;101136.97;;;11.85;63.44
46303;BME280;32029;51.358;5.628;2023-04-25T08:20:36;101151.44;;;12.01;63.69
46303;BME280;32029;51.358;5.628;2023-04-25T08:23:03;101156.53;;;12.19;62.35
46303;BME280;32029;51.358;5.628;2023-04-25T08:25:30;101162.41;;;12.31;62.19
46303;BME280;32029;51.358;5.628;2023-04-25T08:27:56;101161.25;;;12.40;61.45
46303;BME280;32029;51.358;5.628;2023-04-25T08:30:23;101166.59;;;12.42;61.06
46303;BME280;32029;51.358;5.628;2023-04-25T08:32:50;101168.97;;;12.45;60.91
46303;BME280;32029;51.358;5.628;2023-04-25T08:35:17;101180.63;;;12.47;60.43
46303;BME280;32029;51.358;5.628;2023-04-25T08:37:44;101175.59;;;12.50;60.01
46303;BME280;32029;51.358;5.628;2023-04-25T08:40:14;101182.41;;;12.55;61.01
46303;BME280;32029;51.358;5.628;2023-04-25T08:42:43;101164.69;;;12.57;59.70
46303;BME280;32029;51.358;5.628;2023-04-25T08:45:10;101156.69;;;12.62;60.60
46303;BME280;32029;51.358;5.628;2023-04-25T08:47:38;101181.78;;;12.89;59.59
46303;BME280;32029;51.358;5.628;2023-04-25T08:50:06;101183.00;;;13.01;59.58
46303;BME280;32029;51.358;5.628;2023-04-25T08:52:43;101186.34;;;13.18;59.15
46303;BME280;32029;51.358;5.628;2023-04-25T08:55:12;101204.50;;;13.27;58.30
46303;BME280;32029;51.358;5.628;2023-04-25T08:57:42;101195.91;;;13.37;58.41
46303;BME280;32029;51.358;5.628;2023-04-25T09:00:11;101206.41;;;13.48;58.80
46303;BME280;32029;51.358;5.628;2023-04-25T09:02:39;101208.63;;;13.59;58.07
46303;BME280;32029;51.358;5.628;2023-04-25T09:05:06;101215.84;;;13.60;57.80
46303;BME280;32029;51.358;5.628;2023-04-25T09:07:33;101232.78;;;13.57;57.61
46303;BME280;32029;51.358;5.628;2023-04-25T09:10:00;101231.69;;;13.52;57.61
46303;BME280;32029;51.358;5.628;2023-04-25T09:12:29;101227.53;;;13.41;57.92
46303;BME280;32029;51.358;5.628;2023-04-25T09:15:10;101228.78;;;13.38;57.35
46303;BME280;32029;51.358;5.628;2023-04-25T09:17:41;101228.59;;;13.40;56.73
46303;BME280;32029;51.358;5.628;2023-04-25T09:20:13;101234.44;;;13.52;56.37
46303;BME280;32029;51.358;5.628;2023-04-25T09:22:40;101254.06;;;13.63;55.99
46303;BME280;32029;51.358;5.628;2023-04-25T09:25:11;101250.53;;;13.69;55.96
46303;BME280;32029;51.358;5.628;2023-04-25T09:27:53;101255.06;;;13.77;56.72
46303;BME280;32029;51.358;5.628;2023-04-25T09:30:41;101234.75;;;13.85;56.91
46303;BME280;32029;51.358;5.628;2023-04-25T09:33:11;101237.88;;;14.03;57.03
46303;BME280;32029;51.358;5.628;2023-04-25T09:35:43;101254.78;;;14.21;55.73
46303;BME280;32029;51.358;5.628;2023-04-25T09:38:14;101238.84;;;14.17;56.13
46303;BME280;32029;51.358;5.628;2023-04-25T09:40:45;101251.41;;;14.26;55.80
46303;BME280;32029;51.358;5.628;2023-04-25T09:45:45;101187.06;;;13.91;56.50
46303;BME280;32029;51.358;5.628;2023-04-25T09:48:21;101256.88;;;14.48;55.49
46303;BME280;32029;51.358;5.628;2023-04-25T09:51:07;101263.34;;;14.61;55.33
46303;BME280;32029;51.358;5.628;2023-04-25T09:53:42;101261.72;;;14.74;54.40
46303;BME280;32029;51.358;5.628;2023-04-25T09:56:11;101269.44;;;14.85;52.69
46303;BME280;32029;51.358;5.628;2023-04-25T09:58:39;101264.97;;;14.84;52.00
46303;BME280;32029;51.358;5.628;2023-04-25T10:01:08;101262.66;;;14.87;51.55
46303;BME280;32029;51.358;5.628;2023-04-25T10:03:37;101263.06;;;14.84;51.86
46303;BME280;32029;51.358;5.628;2023-04-25T10:06:12;101262.22;;;14.84;51.51
46303;BME280;32029;51.358;5.628;2023-04-25T10:08:41;101274.13;;;14.84;52.42
46303;BME280;32029;51.358;5.628;2023-04-25T10:11:08;101261.50;;;14.68;52.16
46303;BME280;32029;51.358;5.628;2023-04-25T10:13:35;101271.75;;;14.81;52.46
46303;BME280;32029;51.358;5.628;2023-04-25T10:16:04;101283.06;;;14.86;52.00
46303;BME280;32029;51.358;5.628;2023-04-25T10:18:31;101281.16;;;14.93;50.28
46303;BME280;32029;51.358;5.628;2023-04-25T10:21:04;101230.72;;;14.72;50.37
46303;BME280;32029;51.358;5.628;2023-04-25T10:23:31;101277.56;;;14.93;50.31
46303;BME280;32029;51.358;5.628;2023-04-25T10:25:58;101279.91;;;14.96;51.06
46303;BME280;32029;51.358;5.628;2023-04-25T10:28:26;101269.25;;;14.93;51.87
46303;BME280;32029;51.358;5.628;2023-04-25T10:31:01;101282.91;;;15.01;50.44
46303;BME280;32029;51.358;5.628;2023-04-25T10:33:33;101278.00;;;14.97;49.29
46303;BME280;32029;51.358;5.628;2023-04-25T10:36:14;101275.44;;;14.95;50.42
46303;BME280;32029;51.358;5.628;2023-04-25T10:38:42;101279.72;;;15.04;51.24
46303;BME280;32029;51.358;5.628;2023-04-25T10:41:11;101272.16;;;15.19;52.24
46303;BME280;32029;51.358;5.628;2023-04-25T10:43:40;101273.50;;;15.37;53.33
46303;BME280;32029;51.358;5.628;2023-04-25T10:48:51;101286.06;;;15.46;53.00
46303;BME280;32029;51.358;5.628;2023-04-25T10:51:23;101283.72;;;15.50;51.99
46303;BME280;32029;51.358;5.628;2023-04-25T10:53:57;101280.13;;;15.49;52.36
46303;BME280;32029;51.358;5.628;2023-04-25T10:59:13;101294.72;;;15.36;51.39
46303;BME280;32029;51.358;5.628;2023-04-25T11:01:45;101286.63;;;15.22;51.31
46303;BME280;32029;51.358;5.628;2023-04-25T11:04:29;101276.78;;;15.12;52.06
46303;BME280;32029;51.358;5.628;2023-04-25T11:09:37;101286.16;;;15.11;51.30
46303;BME280;32029;51.358;5.628;2023-04-25T11:12:05;101275.53;;;15.15;49.66
46303;BME280;32029;51.358;5.628;2023-04-25T11:14:33;101267.91;;;15.24;49.22
46303;BME280;32029;51.358;5.628;2023-04-25T11:17:00;101268.34;;;15.27;48.55
46303;BME280;32029;51.358;5.628;2023-04-25T11:19:30;101244.94;;;15.23;48.51
46303;BME280;32029;51.358;5.628;2023-04-25T11:21:57;101281.16;;;15.41;46.73
46303;BME280;32029;51.358;5.628;2023-04-25T11:24:28;101277.53;;;15.34;45.48
46303;BME280;32029;51.358;5.628;2023-04-25T11:26:57;101283.72;;;15.43;45.84
46303;BME280;32029;51.358;5.628;2023-04-25T11:29:32;101276.25;;;15.37;45.23
46303;BME280;32029;51.358;5.628;2023-04-25T11:31:59;101287.50;;;15.35;46.43
46303;BME280;32029;51.358;5.628;2023-04-25T11:34:28;101262.84;;;15.34;45.73
46303;BME280;32029;51.358;5.628;2023-04-25T11:36:57;101285.22;;;15.46;45.45
46303;BME280;32029;51.358;5.628;2023-04-25T11:39:25;101295.66;;;15.50;46.35
46303;BME280;32029;51.358;5.628;2023-04-25T11:41:52;101286.50;;;15.56;47.58
46303;BME280;32029;51.358;5.628;2023-04-25T11:44:19;101293.59;;;15.65;45.03
46303;BME280;32029;51.358;5.628;2023-04-25T11:46:46;101304.47;;;15.74;45.61
46303;BME280;32029;51.358;5.628;2023-04-25T11:49:14;101294.47;;;15.73;44.97
46303;BME280;32029;51.358;5.628;2023-04-25T11:51:42;101294.38;;;15.59;45.37
46303;BME280;32029;51.358;5.628;2023-04-25T11:54:10;101297.94;;;15.40;47.77
46303;BME280;32029;51.358;5.628;2023-04-25T11:56:41;101295.50;;;15.10;49.24
46303;BME280;32029;51.358;5.628;2023-04-25T11:59:08;101331.59;;;15.02;49.89
46303;BME280;32029;51.358;5.628;2023-04-25T12:01:37;101339.06;;;14.74;51.55
46303;BME280;32029;51.358;5.628;2023-04-25T12:06:45;101321.16;;;14.13;53.96
46303;BME280;32029;51.358;5.628;2023-04-25T12:09:20;101322.00;;;13.92;55.00
46303;BME280;32029;51.358;5.628;2023-04-25T12:11:52;101314.09;;;13.83;54.30
46303;BME280;32029;51.358;5.628;2023-04-25T12:14:26;101298.78;;;13.59;54.08
46303;BME280;32029;51.358;5.628;2023-04-25T12:16:58;101339.50;;;13.78;54.67
46303;BME280;32029;51.358;5.628;2023-04-25T12:19:26;101354.88;;;13.87;54.38
46303;BME280;32029;51.358;5.628;2023-04-25T12:21:57;101350.66;;;13.91;54.85
46303;BME280;32029;51.358;5.628;2023-04-25T12:24:26;101326.44;;;13.87;55.02
46303;BME280;32029;51.358;5.628;2023-04-25T12:26:58;101347.53;;;14.16;54.27
46303;BME280;32029;51.358;5.628;2023-04-25T12:29:27;101357.81;;;14.29;53.23
46303;BME280;32029;51.358;5.628;2023-04-25T12:31:55;101355.31;;;14.34;52.08
46303;BME280;32029;51.358;5.628;2023-04-25T12:34:23;101359.13;;;14.33;52.05
46303;BME280;32029;51.358;5.628;2023-04-25T12:36:51;101331.16;;;14.14;50.21
46303;BME280;32029;51.358;5.628;2023-04-25T12:39:23;101348.88;;;14.27;51.47
46303;BME280;32029;51.358;5.628;2023-04-25T12:41:51;101341.72;;;14.32;50.45
46303;BME280;32029;51.358;5.628;2023-04-25T12:44:20;101345.19;;;14.41;50.21
46303;BME280;32029;51.358;5.628;2023-04-25T12:46:48;101348.56;;;14.43;50.54
46303;BME280;32029;51.358;5.628;2023-04-25T12:49:15;101344.44;;;14.54;50.45
46303;BME280;32029;51.358;5.628;2023-04-25T12:51:42;101348.50;;;14.51;49.66
46303;BME280;32029;51.358;5.628;2023-04-25T12:54:09;101346.22;;;14.61;49.13
46303;BME280;32029;51.358;5.628;2023-04-25T12:56:36;101336.84;;;14.62;49.56
46303;BME280;32029;51.358;5.628;2023-04-25T12:59:03;101347.47;;;14.87;49.52
46303;BME280;32029;51.358;5.628;2023-04-25T13:01:29;101360.50;;;15.00;49.34
46303;BME280;32029;51.358;5.628;2023-04-25T13:03:56;101343.53;;;15.09;46.84
46303;BME280;32029;51.358;5.628;2023-04-25T13:06:23;101321.81;;;15.00;46.36
46303;BME280;32029;51.358;5.628;2023-04-25T13:08:50;101352.09;;;15.21;46.04
46303;BME280;32029;51.358;5.628;2023-04-25T13:11:17;101335.94;;;15.25;45.58